Time;durP1;ratioP1;P1;durP2;ratioP2;P2;SDS_P1;SDS_P2;PMS_P1;PMS_P2;Temp;Humidity;BMP_temperature;BMP_pressure;BME280_temperature;BME280_humidity;BME280_pressure;Samples;Min_cycle;Max_cycle;Signal;HPM_P1;HPM_P2
2022/06/24 00:02:10;;;;;;;;;;;;;;;24.34;63.29;99697.75;5014957;28;6975;-76
2022/06/24 00:04:37;;;;;;;;;;;;;;;24.35;62.60;99685.53;5017983;28;6819;-76
2022/06/24 00:07:14;;;;;;;;;;;;;;;24.35;62.62;99677.66;5030186;28;6808;-76
2022/06/24 00:09:42;;;;;;;;;;;;;;;24.36;62.56;99669.75;5030450;28;7205;-76
2022/06/24 00:12:13;;;;;;;;;;;;;;;24.36;62.34;99659.28;5014811;28;6812;-77
2022/06/24 00:14:41;;;;;;;;;;;;;;;24.36;62.26;99659.28;5032916;28;7440;-77
2022/06/24 00:17:09;;;;;;;;;;;;;;;24.37;62.16;99655.78;5032327;28;6811;-77
2022/06/24 00:19:59;;;;;;;;;;;;;;;24.36;62.70;99653.19;5031616;28;8417;-77
2022/06/24 00:22:29;;;;;;;;;;;;;;;24.33;62.20;99655.88;5016655;28;7320;-77
2022/06/24 00:25:24;;;;;;;;;;;;;;;24.30;61.98;99662.06;5005386;28;7027;-77
2022/06/24 00:28:11;;;;;;;;;;;;;;;24.23;62.57;99669.13;5018052;28;7158;-77
2022/06/24 00:30:50;;;;;;;;;;;;;;;24.18;62.25;99671.00;5033456;28;7000;-77
2022/06/24 00:33:21;;;;;;;;;;;;;;;24.16;62.80;99680.66;5016239;28;6968;-77
2022/06/24 00:35:56;;;;;;;;;;;;;;;24.11;62.19;99685.97;5003384;28;8589;-77
2022/06/24 00:38:25;;;;;;;;;;;;;;;24.08;63.02;99686.00;5031943;28;6978;-77
2022/06/24 00:41:15;;;;;;;;;;;;;;;24.05;62.31;99683.47;5015532;28;6980;-77
2022/06/24 00:43:44;;;;;;;;;;;;;;;24.02;62.56;99696.59;4989872;28;8529;-77
2022/06/24 00:46:13;;;;;;;;;;;;;;;23.99;62.29;99707.09;5014701;28;8050;-77
2022/06/24 00:48:46;;;;;;;;;;;;;;;23.96;62.88;99710.66;5015632;28;6990;-77
2022/06/24 00:51:12;;;;;;;;;;;;;;;23.96;62.63;99713.28;5015208;28;7881;-77
2022/06/24 00:53:44;;;;;;;;;;;;;;;23.94;63.06;99719.41;5015386;28;8073;-77
2022/06/24 00:56:12;;;;;;;;;;;;;;;23.94;63.06;99722.88;5017453;28;8526;-77
2022/06/24 00:58:37;;;;;;;;;;;;;;;23.92;62.80;99719.44;5005965;28;7217;-77
2022/06/24 01:01:03;;;;;;;;;;;;;;;23.92;62.73;99722.06;5020750;28;6803;-77
2022/06/24 01:03:40;;;;;;;;;;;;;;;23.95;63.40;99727.25;4987033;28;8450;-77
2022/06/24 01:06:07;;;;;;;;;;;;;;;23.95;62.96;99723.75;5034735;28;8401;-77
2022/06/24 01:08:33;;;;;;;;;;;;;;;23.96;63.32;99726.34;5034499;28;7064;-77
2022/06/24 01:10:59;;;;;;;;;;;;;;;23.98;62.94;99736.78;4988975;28;8374;-77
2022/06/24 01:13:26;;;;;;;;;;;;;;;23.99;62.84;99733.25;5019830;28;6812;-78
2022/06/24 01:15:52;;;;;;;;;;;;;;;23.99;63.53;99714.94;5001542;28;6972;-77
2022/06/24 01:18:17;;;;;;;;;;;;;;;23.99;62.66;99718.44;5017403;28;7030;-77
2022/06/24 01:20:43;;;;;;;;;;;;;;;23.96;62.97;99718.50;5035546;28;6957;-77
2022/06/24 01:23:09;;;;;;;;;;;;;;;23.94;63.40;99722.88;5035138;28;6795;-77
2022/06/24 01:25:34;;;;;;;;;;;;;;;23.91;63.40;99720.31;5007762;28;6804;-77
2022/06/24 01:28:00;;;;;;;;;;;;;;;23.90;63.33;99731.69;5021674;28;6819;-77
2022/06/24 01:30:28;;;;;;;;;;;;;;;23.88;63.47;99740.44;5035702;28;7171;-77
2022/06/24 01:32:54;;;;;;;;;;;;;;;23.85;63.88;99738.75;5034393;28;7046;-78
2022/06/24 01:35:20;;;;;;;;;;;;;;;23.82;63.72;99734.44;5016754;28;7165;-78
2022/06/24 01:37:46;;;;;;;;;;;;;;;23.79;63.65;99731.03;5034938;28;6803;-78
2022/06/24 01:40:13;;;;;;;;;;;;;;;23.77;63.43;99717.09;5034536;28;8134;-77
2022/06/24 01:42:38;;;;;;;;;;;;;;;23.75;64.12;99719.75;5019051;28;6876;-77
2022/06/24 01:45:05;;;;;;;;;;;;;;;23.72;63.97;99720.66;5035192;28;8335;-77
2022/06/24 01:47:31;;;;;;;;;;;;;;;23.73;63.64;99721.53;5019032;28;6979;-77
2022/06/24 01:49:56;;;;;;;;;;;;;;;23.70;63.76;99714.59;5032851;28;6839;-77
2022/06/24 01:52:22;;;;;;;;;;;;;;;23.70;64.20;99722.44;5035928;28;8034;-78
2022/06/24 01:54:48;;;;;;;;;;;;;;;23.71;64.17;99724.16;5034168;28;7004;-77
2022/06/24 01:57:13;;;;;;;;;;;;;;;23.72;64.07;99709.34;5029817;28;7140;-77
2022/06/24 01:59:39;;;;;;;;;;;;;;;23.74;63.74;99704.94;5014993;28;6875;-77
2022/06/24 02:02:05;;;;;;;;;;;;;;;23.78;63.52;99708.38;5034597;28;6858;-77
2022/06/24 02:04:31;;;;;;;;;;;;;;;23.82;63.95;99704.78;5016841;28;7390;-77
2022/06/24 02:06:56;;;;;;;;;;;;;;;23.84;63.54;99700.38;5027697;28;6942;-77
2022/06/24 02:09:22;;;;;;;;;;;;;;;23.84;63.45;99708.25;5021104;28;7189;-77
2022/06/24 02:14:32;;;;;;;;;;;;;;;23.85;64.02;99697.75;5020834;28;7038;-78
2022/06/24 02:16:58;;;;;;;;;;;;;;;23.86;63.50;99696.00;5019074;28;6980;-78
2022/06/24 02:19:25;;;;;;;;;;;;;;;23.86;63.50;99702.09;5036054;28;7282;-78
2022/06/24 02:21:50;;;;;;;;;;;;;;;23.86;63.35;99709.09;5019516;28;8580;-78
2022/06/24 02:24:16;;;;;;;;;;;;;;;23.86;63.51;99712.56;5021431;28;6795;-78
2022/06/24 02:26:43;;;;;;;;;;;;;;;23.85;63.30;99700.38;5036955;28;6783;-78
2022/06/24 02:29:10;;;;;;;;;;;;;;;23.84;63.09;99703.88;5033978;28;8345;-78
2022/06/24 02:31:38;;;;;;;;;;;;;;;23.86;63.47;99688.16;4991019;28;6961;-78
2022/06/24 02:34:04;;;;;;;;;;;;;;;23.85;63.78;99686.41;5030201;28;6835;-78
2022/06/24 02:36:29;;;;;;;;;;;;;;;23.84;63.57;99682.94;5035930;28;7130;-78
2022/06/24 02:38:55;;;;;;;;;;;;;;;23.83;63.06;99685.59;5020693;28;6792;-78
2022/06/24 02:41:21;;;;;;;;;;;;;;;23.81;63.30;99676.91;5004824;28;8549;-78
2022/06/24 02:43:46;;;;;;;;;;;;;;;23.79;63.45;99673.47;5016531;28;7250;-78
2022/06/24 02:46:16;;;;;;;;;;;;;;;23.74;62.73;99660.47;5032996;28;6779;-78
2022/06/24 02:48:43;;;;;;;;;;;;;;;23.70;62.82;99654.44;5000101;28;7151;-78
2022/06/24 02:51:12;;;;;;;;;;;;;;;23.66;62.64;99657.13;5019634;28;6796;-78
2022/06/24 02:53:38;;;;;;;;;;;;;;;23.59;62.63;99640.69;5036309;28;6800;-78
2022/06/24 02:56:07;;;;;;;;;;;;;;;23.52;62.32;99633.84;5017637;28;6969;-78
2022/06/24 02:58:34;;;;;;;;;;;;;;;23.46;62.74;99624.34;5035927;28;7227;-79
2022/06/24 03:01:01;;;;;;;;;;;;;;;23.40;62.64;99622.72;5023240;28;7888;-78
2022/06/24 03:03:28;;;;;;;;;;;;;;;23.37;63.12;99620.16;5013134;28;8388;-78
2022/06/24 03:05:54;;;;;;;;;;;;;;;23.35;63.38;99613.22;5017228;28;6982;-78
2022/06/24 03:08:24;;;;;;;;;;;;;;;23.32;62.88;99611.53;4999926;28;7943;-78
2022/06/24 03:10:50;;;;;;;;;;;;;;;23.30;63.20;99603.69;5035411;28;7190;-78
2022/06/24 03:13:16;;;;;;;;;;;;;;;23.29;63.13;99608.97;5016481;28;7231;-78
2022/06/24 03:15:43;;;;;;;;;;;;;;;23.26;63.15;99614.19;5030489;28;6984;-78
2022/06/24 03:18:11;;;;;;;;;;;;;;;23.22;62.57;99608.16;5015460;28;8388;-78
2022/06/24 03:20:37;;;;;;;;;;;;;;;23.20;63.27;99602.09;5032419;28;7414;-78
2022/06/24 03:23:04;;;;;;;;;;;;;;;23.18;63.16;99593.41;4995506;28;8400;-78
2022/06/24 03:25:30;;;;;;;;;;;;;;;23.18;63.39;99598.66;5016424;28;8395;-78
2022/06/24 03:27:57;;;;;;;;;;;;;;;23.17;63.39;99595.16;5031912;28;6808;-78
2022/06/24 03:30:22;;;;;;;;;;;;;;;23.17;63.47;99595.16;5032817;28;7337;-78
2022/06/24 03:32:48;;;;;;;;;;;;;;;23.19;63.12;99600.38;5015803;28;6859;-78
2022/06/24 03:35:14;;;;;;;;;;;;;;;23.23;63.45;99601.19;5014534;28;6799;-78
2022/06/24 03:37:40;;;;;;;;;;;;;;;23.25;63.32;99600.28;5030414;28;6826;-78
2022/06/24 03:40:06;;;;;;;;;;;;;;;23.28;63.35;99602.88;5015174;28;7168;-78
2022/06/24 03:42:32;;;;;;;;;;;;;;;23.31;63.32;99594.09;4999022;28;7295;-77
2022/06/24 03:44:57;;;;;;;;;;;;;;;23.33;63.30;99589.72;5010506;28;7219;-79
2022/06/24 03:47:23;;;;;;;;;;;;;;;23.36;63.87;99591.41;5015627;28;7195;-77
2022/06/24 03:49:52;;;;;;;;;;;;;;;23.36;63.72;99583.56;5019940;28;6804;-77
2022/06/24 03:52:18;;;;;;;;;;;;;;;23.38;63.43;99587.00;5013776;28;7616;-78
2022/06/24 03:54:45;;;;;;;;;;;;;;;23.38;63.50;99582.66;5016939;28;6994;-78
2022/06/24 03:57:11;;;;;;;;;;;;;;;23.38;63.28;99590.50;5033999;28;7262;-78
2022/06/24 03:59:37;;;;;;;;;;;;;;;23.40;63.59;99593.06;5031590;28;7084;-78
2022/06/24 04:02:03;;;;;;;;;;;;;;;23.44;63.56;99600.00;5013645;28;7003;-78
2022/06/24 04:04:29;;;;;;;;;;;;;;;23.47;63.63;99606.88;5013139;28;6780;-79
2022/06/24 04:06:55;;;;;;;;;;;;;;;23.50;63.55;99612.09;5020575;28;6874;-79
2022/06/24 04:09:20;;;;;;;;;;;;;;;23.50;63.35;99605.09;5000939;28;6947;-78
2022/06/24 04:11:46;;;;;;;;;;;;;;;23.54;63.68;99612.00;5030256;28;7168;-78
2022/06/24 04:14:12;;;;;;;;;;;;;;;23.56;63.66;99612.84;5031058;28;7241;-78
2022/06/24 04:16:37;;;;;;;;;;;;;;;23.60;63.57;99621.50;5013754;28;6787;-78
2022/06/24 04:19:03;;;;;;;;;;;;;;;23.63;63.43;99636.28;5016900;28;7238;-78
2022/06/24 04:21:31;;;;;;;;;;;;;;;23.65;63.54;99643.16;5013118;28;7960;-78
2022/06/24 04:23:57;;;;;;;;;;;;;;;23.68;63.86;99640.53;5015317;28;8027;-78
2022/06/24 04:26:23;;;;;;;;;;;;;;;23.71;63.43;99648.31;5012984;28;7072;-78
2022/06/24 04:28:50;;;;;;;;;;;;;;;23.73;63.47;99653.50;5017965;28;7183;-78
2022/06/24 04:31:16;;;;;;;;;;;;;;;23.74;63.37;99660.47;5014252;28;6872;-78
2022/06/24 04:33:42;;;;;;;;;;;;;;;23.75;63.58;99651.72;4983096;28;6899;-78
2022/06/24 04:36:15;;;;;;;;;;;;;;;23.77;63.40;99652.56;5016063;28;6883;-78
2022/06/24 04:38:42;;;;;;;;;;;;;;;23.78;63.41;99661.28;5036292;28;7205;-78
2022/06/24 04:41:18;;;;;;;;;;;;;;;23.81;63.48;99655.97;5018481;28;6796;-78
2022/06/24 04:43:44;;;;;;;;;;;;;;;23.84;63.57;99656.78;4989505;28;9511;-79
2022/06/24 04:46:10;;;;;;;;;;;;;;;23.88;63.74;99657.59;5035392;28;6894;-79
2022/06/24 04:48:37;;;;;;;;;;;;;;;23.94;63.62;99661.84;5036721;28;7028;-78
2022/06/24 04:51:03;;;;;;;;;;;;;;;23.97;63.01;99662.66;5016327;28;6784;-78
2022/06/24 04:53:30;;;;;;;;;;;;;;;24.01;63.08;99663.47;5022049;28;6891;-78
2022/06/24 04:55:57;;;;;;;;;;;;;;;24.02;62.96;99654.72;5018460;28;6796;-77
2022/06/24 04:58:23;;;;;;;;;;;;;;;24.06;63.27;99660.78;5022708;28;7915;-78
2022/06/24 05:00:49;;;;;;;;;;;;;;;24.06;62.91;99660.78;5031769;28;7057;-77
2022/06/24 05:03:15;;;;;;;;;;;;;;;24.06;63.25;99656.41;5011476;28;7120;-78
2022/06/24 05:05:41;;;;;;;;;;;;;;;24.08;62.88;99654.59;5030090;28;8114;-78
2022/06/24 05:08:07;;;;;;;;;;;;;;;24.10;62.98;99657.22;5016953;28;10096;-78
2022/06/24 05:10:32;;;;;;;;;;;;;;;24.12;62.44;99655.41;5014586;28;8397;-78
2022/06/24 05:12:58;;;;;;;;;;;;;;;24.14;62.97;99653.63;5020447;28;6878;-78
2022/06/24 05:15:24;;;;;;;;;;;;;;;24.16;62.93;99649.25;5001959;28;6961;-78
2022/06/24 05:17:49;;;;;;;;;;;;;;;24.18;62.42;99644.84;5032814;28;7924;-78
2022/06/24 05:20:15;;;;;;;;;;;;;;;24.20;62.61;99643.03;5035246;28;7072;-78
2022/06/24 05:22:41;;;;;;;;;;;;;;;24.21;62.31;99650.00;5013600;28;7084;-79
2022/06/24 05:25:08;;;;;;;;;;;;;;;24.11;61.57;99641.47;5012009;28;6886;-82
2022/06/24 05:27:34;;;;;;;;;;;;;;;23.94;62.12;99647.00;5027302;28;8505;-82
2022/06/24 05:30:00;;;;;;;;;;;;;;;23.75;62.22;99650.84;5045173;28;8057;-82
2022/06/24 05:32:25;;;;;;;;;;;;;;;23.58;62.62;99654.66;5012273;28;6965;-83
2022/06/24 05:34:51;;;;;;;;;;;;;;;23.49;63.41;99653.03;5040221;28;6811;-83
2022/06/24 05:37:17;;;;;;;;;;;;;;;23.41;63.11;99658.41;5002697;28;7116;-83
2022/06/24 05:39:43;;;;;;;;;;;;;;;23.36;63.48;99656.78;5003199;28;6960;-83
2022/06/24 05:42:09;;;;;;;;;;;;;;;23.30;63.78;99655.13;5022315;28;6944;-82
2022/06/24 05:44:35;;;;;;;;;;;;;;;23.27;64.15;99661.22;5011614;28;7847;-81
2022/06/24 05:47:00;;;;;;;;;;;;;;;23.22;64.11;99657.81;5021465;28;8559;-81
2022/06/24 05:49:26;;;;;;;;;;;;;;;23.17;64.12;99663.09;5029307;28;7068;-81
2022/06/24 05:51:52;;;;;;;;;;;;;;;23.12;63.93;99656.22;5022566;28;7238;-80
2022/06/24 05:57:03;;;;;;;;;;;;;;;22.98;64.15;99636.41;5034619;28;7249;-80
2022/06/24 05:59:28;;;;;;;;;;;;;;;22.95;64.03;99639.09;5036181;28;7172;-80
2022/06/24 06:01:54;;;;;;;;;;;;;;;22.92;64.21;99639.13;5035278;28;7242;-80
2022/06/24 06:04:20;;;;;;;;;;;;;;;22.92;64.43;99638.28;5003817;28;9182;-80
2022/06/24 06:06:48;;;;;;;;;;;;;;;22.89;64.23;99645.28;5031880;28;7632;-80
2022/06/24 06:09:14;;;;;;;;;;;;;;;22.89;64.68;99654.84;5018074;28;8480;-80
2022/06/24 06:11:40;;;;;;;;;;;;;;;22.89;64.87;99668.78;5035827;28;6964;-80
2022/06/24 06:14:05;;;;;;;;;;;;;;;22.92;64.88;99672.22;5019687;28;7271;-82
2022/06/24 06:16:31;;;;;;;;;;;;;;;22.94;64.63;99684.41;5004635;28;8808;-80
2022/06/24 06:18:57;;;;;;;;;;;;;;;22.93;64.69;99692.25;5032473;28;6958;-80
2022/06/24 06:21:22;;;;;;;;;;;;;;;22.93;65.04;99705.31;5038391;28;6803;-80
2022/06/24 06:23:49;;;;;;;;;;;;;;;22.91;64.41;99700.09;5021520;28;6803;-80
2022/06/24 06:26:14;;;;;;;;;;;;;;;22.91;64.87;99704.47;5026325;28;6815;-80
2022/06/24 06:28:41;;;;;;;;;;;;;;;22.93;64.89;99700.09;5019960;28;6907;-80
2022/06/24 06:31:08;;;;;;;;;;;;;;;22.93;64.93;99700.09;5001089;28;9418;-80
2022/06/24 06:33:34;;;;;;;;;;;;;;;22.96;65.14;99697.41;5004516;28;7722;-80
2022/06/24 06:36:09;;;;;;;;;;;;;;;22.96;65.23;99697.41;5000949;28;8470;-80
2022/06/24 06:38:36;;;;;;;;;;;;;;;22.98;64.81;99700.88;5012296;28;7238;-80
2022/06/24 06:41:02;;;;;;;;;;;;;;;23.00;64.93;99693.88;5000126;28;9150;-80
2022/06/24 06:43:29;;;;;;;;;;;;;;;23.01;65.10;99687.78;5037837;28;8664;-80
2022/06/24 06:45:55;;;;;;;;;;;;;;;23.02;64.68;99686.88;5004900;28;6967;-80
2022/06/24 06:48:22;;;;;;;;;;;;;;;23.04;64.45;99692.94;4988990;28;7240;-80
2022/06/24 06:50:56;;;;;;;;;;;;;;;23.07;64.67;99694.66;5004338;28;7051;-80
2022/06/24 06:53:25;;;;;;;;;;;;;;;23.10;64.64;99686.75;5004472;28;9968;-80
2022/06/24 06:55:51;;;;;;;;;;;;;;;23.13;64.73;99690.19;5038311;28;6808;-79
2022/06/24 06:58:18;;;;;;;;;;;;;;;23.20;64.70;99696.19;5020356;28;6994;-79
2022/06/24 07:00:44;;;;;;;;;;;;;;;23.25;64.55;99685.66;5036297;28;8300;-79
2022/06/24 07:03:10;;;;;;;;;;;;;;;23.31;64.80;99688.22;5000245;28;8568;-79
2022/06/24 07:05:36;;;;;;;;;;;;;;;23.36;64.67;99678.53;5019012;28;6941;-79
2022/06/24 07:08:03;;;;;;;;;;;;;;;23.44;64.92;99673.19;5015475;28;7329;-79
2022/06/24 07:10:28;;;;;;;;;;;;;;;23.52;64.87;99684.41;5021413;28;6965;-79
2022/06/24 07:12:55;;;;;;;;;;;;;;;23.61;64.91;99687.72;5016944;28;6950;-79
2022/06/24 07:15:21;;;;;;;;;;;;;;;23.70;64.65;99680.59;5024017;28;7271;-79
2022/06/24 07:17:46;;;;;;;;;;;;;;;23.81;65.01;99682.16;5003091;28;6803;-80
2022/06/24 07:20:12;;;;;;;;;;;;;;;23.92;64.75;99684.56;5019119;28;7045;-79
2022/06/24 07:22:40;;;;;;;;;;;;;;;24.02;64.43;99680.88;5032041;28;6795;-79
2022/06/24 07:25:06;;;;;;;;;;;;;;;24.08;64.66;99669.47;5032642;28;6947;-80
2022/06/24 07:27:32;;;;;;;;;;;;;;;24.12;64.36;99671.13;5035380;28;6800;-80
2022/06/24 07:29:58;;;;;;;;;;;;;;;24.21;64.55;99676.16;5028357;28;7241;-81
2022/06/24 07:32:23;;;;;;;;;;;;;;;24.29;63.99;99676.03;5032563;28;6867;-80
2022/06/24 07:34:49;;;;;;;;;;;;;;;24.35;63.79;99672.44;4999683;28;8578;-80
2022/06/24 07:37:15;;;;;;;;;;;;;;;24.40;63.44;99665.31;5017813;28;6930;-80
2022/06/24 07:39:40;;;;;;;;;;;;;;;24.45;64.06;99663.47;5016952;28;6898;-80
2022/06/24 07:42:06;;;;;;;;;;;;;;;24.54;64.14;99663.28;5014428;28;6960;-79
2022/06/24 07:44:32;;;;;;;;;;;;;;;24.62;63.35;99663.09;5029247;28;7019;-79
2022/06/24 07:46:58;;;;;;;;;;;;;;;24.73;63.53;99672.50;5033338;28;7032;-80
2022/06/24 07:49:24;;;;;;;;;;;;;;;24.80;63.59;99664.47;5025155;28;7364;-81
2022/06/24 07:51:50;;;;;;;;;;;;;;;24.88;63.33;99671.31;5024751;28;7977;-80
2022/06/24 07:54:15;;;;;;;;;;;;;;;24.94;63.35;99671.19;5017303;28;8854;-80
2022/06/24 07:56:56;;;;;;;;;;;;;;;25.01;63.33;99667.50;5000949;28;8488;-80
2022/06/24 07:59:35;;;;;;;;;;;;;;;25.12;62.75;99679.50;5022104;28;7015;-80
2022/06/24 08:02:07;;;;;;;;;;;;;;;25.22;62.88;99678.41;5015020;28;7235;-80
2022/06/24 08:04:34;;;;;;;;;;;;;;;25.34;62.77;99682.44;4998690;28;7406;-80
2022/06/24 08:07:02;;;;;;;;;;;;;;;25.45;62.37;99676.94;5013943;28;9006;-80
2022/06/24 08:09:32;;;;;;;;;;;;;;;25.56;62.09;99677.56;5019630;28;8746;-79
2022/06/24 08:11:59;;;;;;;;;;;;;;;25.68;61.91;99667.66;5019815;28;7223;-79
2022/06/24 08:14:25;;;;;;;;;;;;;;;25.75;61.74;99664.84;5018195;28;6791;-80
2022/06/24 08:16:51;;;;;;;;;;;;;;;25.83;61.56;99677.75;5026274;28;7795;-80
2022/06/24 08:19:16;;;;;;;;;;;;;;;25.95;61.56;99678.31;5012817;28;6776;-79
2022/06/24 08:21:42;;;;;;;;;;;;;;;26.06;61.45;99674.50;5013426;28;6894;-79
2022/06/24 08:24:09;;;;;;;;;;;;;;;26.18;60.99;99675.03;5026498;28;7350;-78
2022/06/24 08:26:35;;;;;;;;;;;;;;;26.40;62.00;99677.06;5013396;28;8475;-78
2022/06/24 08:29:01;;;;;;;;;;;;;;;26.84;62.01;99679.28;5016725;28;6890;-78
2022/06/24 08:31:27;;;;;;;;;;;;;;;27.36;61.15;99670.66;5016294;28;7060;-78
2022/06/24 08:33:52;;;;;;;;;;;;;;;27.94;60.22;99669.59;5014088;28;6787;-79
2022/06/24 08:36:18;;;;;;;;;;;;;;;28.51;59.40;99667.50;5012284;28;6783;-78
2022/06/24 08:38:44;;;;;;;;;;;;;;;29.11;58.08;99666.06;4992572;28;6876;-78
2022/06/24 08:41:11;;;;;;;;;;;;;;;29.61;56.36;99664.03;5002124;28;7080;-78
2022/06/24 08:43:36;;;;;;;;;;;;;;;29.99;54.41;99661.50;5028623;28;6815;-78
2022/06/24 08:46:04;;;;;;;;;;;;;;;30.24;53.35;99662.19;5027847;28;7485;-78
2022/06/24 08:48:34;;;;;;;;;;;;;;;30.33;52.83;99660.00;5015853;28;7318;-77
2022/06/24 08:51:00;;;;;;;;;;;;;;;30.37;51.58;99659.84;5028622;28;6985;-78
2022/06/24 08:53:29;;;;;;;;;;;;;;;30.34;51.41;99658.19;5030391;28;8501;-77
2022/06/24 08:55:55;;;;;;;;;;;;;;;30.49;51.96;99651.34;5010684;28;7257;-77
2022/06/24 08:58:22;;;;;;;;;;;;;;;30.76;51.50;99650.97;4988660;28;8648;-77
2022/06/24 09:00:48;;;;;;;;;;;;;;;31.14;50.75;99650.88;5025514;28;7963;-77
2022/06/24 09:03:13;;;;;;;;;;;;;;;31.40;48.89;99648.75;5015364;28;7617;-78
2022/06/24 09:05:42;;;;;;;;;;;;;;;31.41;48.84;99652.25;5014395;28;6878;-78
2022/06/24 09:08:11;;;;;;;;;;;;;;;31.66;48.62;99646.53;5032291;28;8798;-78
2022/06/24 09:10:39;;;;;;;;;;;;;;;32.00;47.86;99639.47;5014588;28;6816;-77
2022/06/24 09:13:06;;;;;;;;;;;;;;;32.20;47.14;99645.50;5029779;28;6958;-77
2022/06/24 09:15:32;;;;;;;;;;;;;;;32.39;46.74;99642.69;5016157;28;7197;-77
2022/06/24 09:17:59;;;;;;;;;;;;;;;32.71;45.80;99644.50;5030373;28;7128;-77
2022/06/24 09:20:29;;;;;;;;;;;;;;;33.08;45.28;99633.59;5021142;28;7032;-77
2022/06/24 09:23:07;;;;;;;;;;;;;;;33.48;44.75;99628.59;5018215;28;6820;-77
2022/06/24 09:25:54;;;;;;;;;;;;;;;33.97;43.93;99634.50;5001263;28;7019;-77
2022/06/24 09:28:29;;;;;;;;;;;;;;;34.30;42.68;99627.19;4992922;28;6816;-77
2022/06/24 09:31:03;;;;;;;;;;;;;;;34.56;41.75;99625.53;5016605;28;7079;-77
2022/06/24 09:33:41;;;;;;;;;;;;;;;34.85;41.00;99619.22;4998991;28;6996;-77
2022/06/24 09:36:11;;;;;;;;;;;;;;;35.12;40.21;99611.25;5032699;28;7165;-77
2022/06/24 09:39:02;;;;;;;;;;;;;;;35.38;39.58;99615.75;5020678;28;6800;-77
2022/06/24 09:41:29;;;;;;;;;;;;;;;35.63;38.93;99608.72;5015503;28;7216;-77
2022/06/24 09:44:02;;;;;;;;;;;;;;;35.90;39.08;99613.06;5018858;28;6816;-77
2022/06/24 09:46:31;;;;;;;;;;;;;;;36.17;37.44;99614.75;5010730;28;7353;-77
2022/06/24 09:49:06;;;;;;;;;;;;;;;36.38;37.09;99609.69;4986202;28;8274;-77
2022/06/24 09:51:32;;;;;;;;;;;;;;;36.52;36.93;99614.00;5002477;28;7267;-77
2022/06/24 09:53:59;;;;;;;;;;;;;;;36.44;36.68;99608.38;5023884;28;7058;-77
2022/06/24 09:56:26;;;;;;;;;;;;;;;36.33;35.83;99615.34;5017633;28;6958;-77
2022/06/24 10:01:45;;;;;;;;;;;;;;;35.95;36.00;99613.59;5012515;28;9353;-77
2022/06/24 10:04:17;;;;;;;;;;;;;;;35.68;36.44;99626.09;5029906;28;6796;-77
2022/06/24 10:06:46;;;;;;;;;;;;;;;35.59;36.59;99624.94;5015472;28;7838;-77
2022/06/24 10:09:14;;;;;;;;;;;;;;;35.25;35.42;99637.91;5017759;28;6803;-77
2022/06/24 10:11:44;;;;;;;;;;;;;;;34.73;36.15;99647.53;5015246;28;7212;-78
2022/06/24 10:14:12;;;;;;;;;;;;;;;34.48;36.89;99649.06;5017615;28;7176;-78
2022/06/24 10:16:42;;;;;;;;;;;;;;;34.85;37.49;99648.50;5036000;28;6784;-77
2022/06/24 10:19:10;;;;;;;;;;;;;;;35.07;35.82;99652.44;5165553;23;8449;-80
2022/06/24 10:21:38;;;;;;;;;;;;;;;35.01;36.00;99653.66;5009174;28;6868;-78
2022/06/24 10:24:21;;;;;;;;;;;;;;;34.72;35.83;99657.28;4992150;28;8488;-78
2022/06/24 10:26:55;;;;;;;;;;;;;;;34.34;35.91;99665.91;5016705;28;8957;-78
2022/06/24 10:29:26;;;;;;;;;;;;;;;33.90;36.74;99662.41;4998218;28;8393;-78
2022/06/24 10:34:22;;;;;;;;;;;;;;;32.95;36.97;99673.25;4992827;28;8056;-78
2022/06/24 10:37:22;;;;;;;;;;;;;;;32.36;37.66;99668.53;5025739;28;8718;-78
2022/06/24 10:39:53;;;;;;;;;;;;;;;31.72;38.31;99666.53;5016257;28;7137;-78
2022/06/24 10:42:21;;;;;;;;;;;;;;;31.23;38.80;99670.75;5010695;28;6987;-78
2022/06/24 10:45:03;;;;;;;;;;;;;;;30.73;39.06;99677.59;5000690;28;8612;-78
2022/06/24 10:47:34;;;;;;;;;;;;;;;30.32;39.84;99676.75;4991342;28;6999;-78
2022/06/24 10:50:01;;;;;;;;;;;;;;;29.96;41.43;99676.63;5017138;28;6883;-79
2022/06/24 10:52:48;;;;;;;;;;;;;;;29.63;41.42;99670.97;5009572;28;7202;-78
2022/06/24 10:55:21;;;;;;;;;;;;;;;29.43;42.17;99677.06;5018403;28;6990;-78
2022/06/24 10:57:54;;;;;;;;;;;;;;;29.31;43.41;99674.94;5007464;28;7254;-78
2022/06/24 11:00:28;;;;;;;;;;;;;;;29.23;44.07;99673.47;4997335;28;10014;-78
2022/06/24 11:03:03;;;;;;;;;;;;;;;29.25;44.35;99670.78;5006222;28;7027;-80
2022/06/24 11:05:36;;;;;;;;;;;;;;;29.28;43.77;99675.09;5024508;28;6796;-78
2022/06/24 11:08:09;;;;;;;;;;;;;;;29.34;43.80;99664.25;5005997;28;7572;-78
2022/06/24 11:10:35;;;;;;;;;;;;;;;29.49;44.64;99663.66;5016582;28;6992;-77
2022/06/24 11:13:03;;;;;;;;;;;;;;;29.77;44.89;99653.66;5010838;28;7007;-78
2022/06/24 11:15:41;;;;;;;;;;;;;;;30.21;43.58;99657.91;4999886;28;6804;-78
2022/06/24 11:18:15;;;;;;;;;;;;;;;30.52;42.95;99645.06;5008445;28;6866;-78
2022/06/24 11:20:43;;;;;;;;;;;;;;;30.67;42.51;99651.41;5002138;28;8777;-78
2022/06/24 11:23:12;;;;;;;;;;;;;;;30.71;41.70;99648.56;5015739;28;8453;-77
2022/06/24 11:25:44;;;;;;;;;;;;;;;30.73;42.09;99636.13;5023055;28;6891;-78
2022/06/24 11:28:25;;;;;;;;;;;;;;;30.82;41.68;99644.53;5026796;28;8805;-78
2022/06/24 11:30:53;;;;;;;;;;;;;;;30.86;41.36;99633.72;5003115;28;7200;-78
2022/06/24 11:33:38;;;;;;;;;;;;;;;30.90;42.12;99632.66;5032473;28;6816;-78
2022/06/24 11:36:26;;;;;;;;;;;;;;;31.28;42.60;99634.34;5037238;28;6808;-78
2022/06/24 11:39:14;;;;;;;;;;;;;;;32.12;41.42;99627.38;5041188;28;7578;-78
2022/06/24 11:42:00;;;;;;;;;;;;;;;33.03;40.11;99623.25;5041449;28;6820;-78
2022/06/24 11:44:51;;;;;;;;;;;;;;;33.72;38.52;99612.09;5026601;28;7379;-78
2022/06/24 11:47:32;;;;;;;;;;;;;;;34.55;37.93;99612.31;5025933;28;8617;-79
2022/06/24 11:49:57;;;;;;;;;;;;;;;35.43;37.03;99605.59;5028893;28;7137;-78
2022/06/24 11:52:23;;;;;;;;;;;;;;;36.29;35.06;99597.84;5046103;28;6942;-78
2022/06/24 11:54:50;;;;;;;;;;;;;;;37.03;34.43;99601.38;5040572;28;8494;-79
2022/06/24 11:57:16;;;;;;;;;;;;;;;37.52;32.70;99597.59;5031516;28;6800;-79
2022/06/24 11:59:48;;;;;;;;;;;;;;;37.91;31.98;99599.94;5041377;28;6811;-78
2022/06/24 12:02:15;;;;;;;;;;;;;;;38.28;31.55;99598.81;5018880;28;6788;-79
2022/06/24 12:05:00;;;;;;;;;;;;;;;38.34;30.87;99603.66;5039429;28;8703;-78
2022/06/24 12:07:25;;;;;;;;;;;;;;;38.40;30.54;99599.63;5031218;28;8687;-78
2022/06/24 12:09:51;;;;;;;;;;;;;;;38.62;30.44;99601.38;5045719;28;8715;-78
2022/06/24 12:12:17;;;;;;;;;;;;;;;38.81;29.29;99599.84;5033386;28;6787;-78
2022/06/24 12:14:55;;;;;;;;;;;;;;;38.41;29.11;99600.47;5033248;28;6784;-78
2022/06/24 12:17:20;;;;;;;;;;;;;;;37.73;29.42;99599.56;5044025;28;6792;-79
2022/06/24 12:20:05;;;;;;;;;;;;;;;37.43;30.22;99592.97;5039541;28;6804;-78
2022/06/24 12:23:21;;;;;;;;;;;;;;;37.27;30.33;99581.78;5039825;28;10027;-78
2022/06/24 12:25:50;;;;;;;;;;;;;;;37.04;31.11;99593.25;5026798;28;9076;-78
2022/06/24 12:28:23;;;;;;;;;;;;;;;37.22;31.63;99588.34;5034278;28;7044;-79
2022/06/24 12:31:08;;;;;;;;;;;;;;;37.68;30.56;99584.88;5042148;28;6788;-79
2022/06/24 12:33:57;;;;;;;;;;;;;;;38.02;30.16;99584.88;5036260;28;7189;-78
2022/06/24 12:36:41;;;;;;;;;;;;;;;38.28;30.24;99587.25;5033425;28;6800;-79
2022/06/24 12:39:11;;;;;;;;;;;;;;;38.50;29.76;99594.38;5043754;28;8507;-79
2022/06/24 12:41:46;;;;;;;;;;;;;;;38.65;29.08;99602.13;5034517;28;6844;-79
2022/06/24 12:44:13;;;;;;;;;;;;;;;38.82;29.35;99595.34;5031604;28;8667;-78
2022/06/24 12:52:34;;;;;;;;;;;;;;;39.57;28.19;99590.78;5034564;28;8414;-79
2022/06/24 12:55:01;;;;;;;;;;;;;;;39.83;27.78;99592.16;5050404;28;6823;-79
2022/06/24 12:57:27;;;;;;;;;;;;;;;39.92;27.19;99595.84;5022230;28;7076;-79
2022/06/24 12:59:53;;;;;;;;;;;;;;;39.92;27.16;99596.72;5037075;28;6933;-79
2022/06/24 13:02:19;;;;;;;;;;;;;;;39.79;26.74;99612.16;5039875;28;6768;-79
2022/06/24 13:04:44;;;;;;;;;;;;;;;39.53;26.87;99604.59;5043766;28;6855;-79
2022/06/24 13:07:10;;;;;;;;;;;;;;;39.27;27.13;99608.53;5038173;28;6969;-79
2022/06/24 13:09:36;;;;;;;;;;;;;;;39.05;27.02;99609.50;5050918;28;6759;-78
2022/06/24 13:12:21;;;;;;;;;;;;;;;39.00;27.22;99609.91;5015791;28;7192;-79
2022/06/24 13:14:49;;;;;;;;;;;;;;;39.06;27.17;99605.84;5033860;28;7244;-78
2022/06/24 13:17:37;;;;;;;;;;;;;;;39.07;27.45;99607.53;5018940;28;6808;-79
2022/06/24 13:20:08;;;;;;;;;;;;;;;39.14;27.07;99605.19;5016227;28;6820;-79
2022/06/24 13:22:33;;;;;;;;;;;;;;;39.22;27.31;99608.06;5022313;28;6950;-79
2022/06/24 13:24:59;;;;;;;;;;;;;;;39.33;27.34;99612.50;5021066;28;6784;-79